sensor_id;sensor_type;location;lat;lon;timestamp;P1;durP1;ratioP1;P2;durP2;ratioP2
40787;SDS011;26497;52.494;7.546;2023-07-13T00:00:29;80.63;;;75.85;;
40787;SDS011;26497;52.494;7.546;2023-07-13T00:02:57;80.47;;;75.57;;
40787;SDS011;26497;52.494;7.546;2023-07-13T00:05:24;84.00;;;78.65;;
40787;SDS011;26497;52.494;7.546;2023-07-13T00:07:52;82.00;;;76.85;;
40787;SDS011;26497;52.494;7.546;2023-07-13T00:10:21;78.05;;;73.47;;
40787;SDS011;26497;52.494;7.546;2023-07-13T00:12:48;83.05;;;77.13;;
40787;SDS011;26497;52.494;7.546;2023-07-13T00:15:19;82.22;;;77.30;;
40787;SDS011;26497;52.494;7.546;2023-07-13T00:17:52;77.82;;;73.38;;
40787;SDS011;26497;52.494;7.546;2023-07-13T00:20:21;79.32;;;73.95;;
40787;SDS011;26497;52.494;7.546;2023-07-13T00:22:50;81.43;;;76.13;;
40787;SDS011;26497;52.494;7.546;2023-07-13T00:25:18;81.03;;;75.93;;
40787;SDS011;26497;52.494;7.546;2023-07-13T00:27:49;78.17;;;73.47;;
40787;SDS011;26497;52.494;7.546;2023-07-13T00:30:17;80.35;;;75.15;;
40787;SDS011;26497;52.494;7.546;2023-07-13T00:32:44;83.25;;;77.78;;
40787;SDS011;26497;52.494;7.546;2023-07-13T00:35:12;82.88;;;76.72;;
40787;SDS011;26497;52.494;7.546;2023-07-13T00:37:41;79.85;;;74.05;;
40787;SDS011;26497;52.494;7.546;2023-07-13T00:40:09;81.88;;;76.78;;
40787;SDS011;26497;52.494;7.546;2023-07-13T00:42:40;79.10;;;74.47;;
40787;SDS011;26497;52.494;7.546;2023-07-13T00:48:27;80.32;;;75.72;;
40787;SDS011;26497;52.494;7.546;2023-07-13T00:51:00;82.00;;;77.40;;
40787;SDS011;26497;52.494;7.546;2023-07-13T00:53:28;81.28;;;75.78;;
40787;SDS011;26497;52.494;7.546;2023-07-13T00:55:58;81.22;;;76.32;;
40787;SDS011;26497;52.494;7.546;2023-07-13T00:58:28;79.45;;;74.75;;
40787;SDS011;26497;52.494;7.546;2023-07-13T01:00:56;76.18;;;71.80;;
40787;SDS011;26497;52.494;7.546;2023-07-13T01:03:23;81.00;;;75.78;;
40787;SDS011;26497;52.494;7.546;2023-07-13T01:05:50;81.95;;;76.85;;
40787;SDS011;26497;52.494;7.546;2023-07-13T01:08:18;83.90;;;79.13;;
40787;SDS011;26497;52.494;7.546;2023-07-13T01:10:53;83.70;;;79.10;;
40787;SDS011;26497;52.494;7.546;2023-07-13T01:13:21;82.45;;;77.10;;
40787;SDS011;26497;52.494;7.546;2023-07-13T01:15:51;81.88;;;76.35;;
40787;SDS011;26497;52.494;7.546;2023-07-13T01:18:21;81.03;;;76.05;;
40787;SDS011;26497;52.494;7.546;2023-07-13T01:20:53;78.87;;;74.17;;
40787;SDS011;26497;52.494;7.546;2023-07-13T01:23:21;79.05;;;74.53;;
40787;SDS011;26497;52.494;7.546;2023-07-13T01:25:49;79.00;;;74.22;;
40787;SDS011;26497;52.494;7.546;2023-07-13T01:28:17;77.55;;;73.07;;
40787;SDS011;26497;52.494;7.546;2023-07-13T01:30:44;78.75;;;73.07;;
40787;SDS011;26497;52.494;7.546;2023-07-13T01:33:13;79.30;;;74.22;;
40787;SDS011;26497;52.494;7.546;2023-07-13T01:35:43;76.77;;;71.33;;
40787;SDS011;26497;52.494;7.546;2023-07-13T01:38:14;558.13;;;304.80;;
40787;SDS011;26497;52.494;7.546;2023-07-13T01:40:43;1999.90;;;999.90;;
40787;SDS011;26497;52.494;7.546;2023-07-13T01:43:11;558.35;;;304.13;;
40787;SDS011;26497;52.494;7.546;2023-07-13T01:45:38;1999.90;;;999.90;;
40787;SDS011;26497;52.494;7.546;2023-07-13T01:48:05;1999.90;;;999.90;;
40787;SDS011;26497;52.494;7.546;2023-07-13T01:50:32;1999.90;;;999.90;;
40787;SDS011;26497;52.494;7.546;2023-07-13T01:53:00;1999.90;;;999.90;;
40787;SDS011;26497;52.494;7.546;2023-07-13T01:55:29;1999.90;;;999.90;;
40787;SDS011;26497;52.494;7.546;2023-07-13T01:57:57;1999.90;;;999.90;;
40787;SDS011;26497;52.494;7.546;2023-07-13T02:00:24;1999.90;;;999.90;;
40787;SDS011;26497;52.494;7.546;2023-07-13T02:02:51;1999.90;;;999.90;;
40787;SDS011;26497;52.494;7.546;2023-07-13T02:05:18;1999.90;;;999.90;;
40787;SDS011;26497;52.494;7.546;2023-07-13T02:07:45;1999.90;;;999.90;;
40787;SDS011;26497;52.494;7.546;2023-07-13T02:10:12;1999.90;;;999.90;;
40787;SDS011;26497;52.494;7.546;2023-07-13T02:12:40;1999.90;;;999.90;;
40787;SDS011;26497;52.494;7.546;2023-07-13T02:15:08;1999.90;;;999.90;;
40787;SDS011;26497;52.494;7.546;2023-07-13T02:17:36;1999.90;;;999.90;;
40787;SDS011;26497;52.494;7.546;2023-07-13T02:20:03;1999.90;;;999.90;;
40787;SDS011;26497;52.494;7.546;2023-07-13T02:22:33;1999.90;;;999.90;;
40787;SDS011;26497;52.494;7.546;2023-07-13T02:25:00;564.92;;;310.13;;
40787;SDS011;26497;52.494;7.546;2023-07-13T02:27:27;1999.90;;;999.90;;
40787;SDS011;26497;52.494;7.546;2023-07-13T02:29:55;566.75;;;312.25;;
40787;SDS011;26497;52.494;7.546;2023-07-13T02:32:22;88.40;;;83.00;;
40787;SDS011;26497;52.494;7.546;2023-07-13T02:34:50;91.45;;;85.50;;
40787;SDS011;26497;52.494;7.546;2023-07-13T02:37:18;89.47;;;84.07;;
40787;SDS011;26497;52.494;7.546;2023-07-13T02:39:46;90.60;;;84.15;;
40787;SDS011;26497;52.494;7.546;2023-07-13T02:42:13;88.05;;;82.35;;
40787;SDS011;26497;52.494;7.546;2023-07-13T02:44:40;90.88;;;84.90;;
40787;SDS011;26497;52.494;7.546;2023-07-13T02:47:09;94.53;;;88.43;;
40787;SDS011;26497;52.494;7.546;2023-07-13T02:49:36;103.40;;;97.30;;
40787;SDS011;26497;52.494;7.546;2023-07-13T02:52:03;103.43;;;97.15;;
40787;SDS011;26497;52.494;7.546;2023-07-13T02:54:31;100.85;;;94.47;;
40787;SDS011;26497;52.494;7.546;2023-07-13T02:56:58;100.90;;;94.03;;
40787;SDS011;26497;52.494;7.546;2023-07-13T02:59:25;96.25;;;89.85;;
40787;SDS011;26497;52.494;7.546;2023-07-13T03:01:52;96.35;;;90.15;;
40787;SDS011;26497;52.494;7.546;2023-07-13T03:04:21;94.20;;;88.43;;
40787;SDS011;26497;52.494;7.546;2023-07-13T03:06:48;92.90;;;87.18;;
40787;SDS011;26497;52.494;7.546;2023-07-13T03:09:15;88.72;;;82.57;;
40787;SDS011;26497;52.494;7.546;2023-07-13T03:11:42;83.80;;;78.30;;
40787;SDS011;26497;52.494;7.546;2023-07-13T03:14:09;85.93;;;79.55;;
40787;SDS011;26497;52.494;7.546;2023-07-13T03:16:36;80.75;;;74.80;;
40787;SDS011;26497;52.494;7.546;2023-07-13T03:19:02;76.97;;;72.20;;
40787;SDS011;26497;52.494;7.546;2023-07-13T03:21:31;79.93;;;73.43;;
40787;SDS011;26497;52.494;7.546;2023-07-13T03:23:58;79.22;;;74.30;;
40787;SDS011;26497;52.494;7.546;2023-07-13T03:26:25;80.55;;;75.45;;
40787;SDS011;26497;52.494;7.546;2023-07-13T03:28:52;82.70;;;76.72;;
40787;SDS011;26497;52.494;7.546;2023-07-13T03:31:20;79.20;;;74.30;;
40787;SDS011;26497;52.494;7.546;2023-07-13T03:33:50;80.95;;;75.53;;
40787;SDS011;26497;52.494;7.546;2023-07-13T03:36:19;77.68;;;72.78;;
40787;SDS011;26497;52.494;7.546;2023-07-13T03:38:51;77.50;;;71.25;;
40787;SDS011;26497;52.494;7.546;2023-07-13T03:41:20;73.63;;;68.93;;
40787;SDS011;26497;52.494;7.546;2023-07-13T03:43:48;75.05;;;70.07;;
40787;SDS011;26497;52.494;7.546;2023-07-13T03:46:16;76.93;;;71.38;;
40787;SDS011;26497;52.494;7.546;2023-07-13T03:48:44;79.43;;;73.97;;
40787;SDS011;26497;52.494;7.546;2023-07-13T03:51:13;79.57;;;74.68;;
40787;SDS011;26497;52.494;7.546;2023-07-13T03:53:43;83.68;;;78.07;;
40787;SDS011;26497;52.494;7.546;2023-07-13T03:56:13;82.93;;;77.35;;
40787;SDS011;26497;52.494;7.546;2023-07-13T03:58:41;81.70;;;76.63;;
40787;SDS011;26497;52.494;7.546;2023-07-13T04:01:11;83.30;;;77.95;;
40787;SDS011;26497;52.494;7.546;2023-07-13T04:03:39;84.35;;;79.22;;
40787;SDS011;26497;52.494;7.546;2023-07-13T04:06:07;82.93;;;76.88;;
40787;SDS011;26497;52.494;7.546;2023-07-13T04:08:45;82.97;;;77.35;;
40787;SDS011;26497;52.494;7.546;2023-07-13T04:11:17;84.03;;;78.35;;
40787;SDS011;26497;52.494;7.546;2023-07-13T04:13:45;84.00;;;79.07;;
40787;SDS011;26497;52.494;7.546;2023-07-13T04:16:13;84.43;;;79.22;;
40787;SDS011;26497;52.494;7.546;2023-07-13T04:18:41;87.18;;;81.40;;
40787;SDS011;26497;52.494;7.546;2023-07-13T04:21:09;87.47;;;81.70;;
40787;SDS011;26497;52.494;7.546;2023-07-13T04:23:36;88.10;;;82.53;;
40787;SDS011;26497;52.494;7.546;2023-07-13T04:26:04;84.30;;;79.13;;
40787;SDS011;26497;52.494;7.546;2023-07-13T04:28:33;94.85;;;89.13;;
40787;SDS011;26497;52.494;7.546;2023-07-13T04:31:00;95.80;;;89.70;;
40787;SDS011;26497;52.494;7.546;2023-07-13T04:33:28;88.50;;;82.88;;
40787;SDS011;26497;52.494;7.546;2023-07-13T04:35:55;81.13;;;76.43;;
40787;SDS011;26497;52.494;7.546;2023-07-13T04:38:24;77.57;;;72.53;;
40787;SDS011;26497;52.494;7.546;2023-07-13T04:40:54;73.70;;;68.50;;
40787;SDS011;26497;52.494;7.546;2023-07-13T04:43:22;70.05;;;65.68;;
40787;SDS011;26497;52.494;7.546;2023-07-13T04:45:51;66.68;;;62.33;;
40787;SDS011;26497;52.494;7.546;2023-07-13T04:48:19;68.90;;;64.72;;
40787;SDS011;26497;52.494;7.546;2023-07-13T04:50:48;73.95;;;69.03;;
40787;SDS011;26497;52.494;7.546;2023-07-13T04:53:21;73.40;;;68.63;;
40787;SDS011;26497;52.494;7.546;2023-07-13T04:55:49;70.97;;;66.57;;
40787;SDS011;26497;52.494;7.546;2023-07-13T04:58:16;69.43;;;64.47;;
40787;SDS011;26497;52.494;7.546;2023-07-13T05:00:43;53.70;;;50.00;;
40787;SDS011;26497;52.494;7.546;2023-07-13T05:03:11;44.67;;;41.50;;
40787;SDS011;26497;52.494;7.546;2023-07-13T05:05:37;44.63;;;41.90;;
40787;SDS011;26497;52.494;7.546;2023-07-13T05:08:04;45.72;;;42.97;;
40787;SDS011;26497;52.494;7.546;2023-07-13T05:10:32;48.78;;;45.13;;
40787;SDS011;26497;52.494;7.546;2023-07-13T05:12:59;49.45;;;46.28;;
40787;SDS011;26497;52.494;7.546;2023-07-13T05:15:26;52.30;;;48.55;;
40787;SDS011;26497;52.494;7.546;2023-07-13T05:17:53;51.70;;;48.13;;
40787;SDS011;26497;52.494;7.546;2023-07-13T05:20:22;50.60;;;47.08;;
40787;SDS011;26497;52.494;7.546;2023-07-13T05:22:49;49.47;;;45.92;;
40787;SDS011;26497;52.494;7.546;2023-07-13T05:25:16;41.45;;;38.47;;
40787;SDS011;26497;52.494;7.546;2023-07-13T05:27:44;38.00;;;35.17;;
40787;SDS011;26497;52.494;7.546;2023-07-13T05:30:12;39.28;;;36.60;;
40787;SDS011;26497;52.494;7.546;2023-07-13T05:32:40;43.42;;;40.22;;
40787;SDS011;26497;52.494;7.546;2023-07-13T05:35:07;47.20;;;44.30;;
40787;SDS011;26497;52.494;7.546;2023-07-13T05:37:36;51.97;;;48.35;;
40787;SDS011;26497;52.494;7.546;2023-07-13T05:40:04;49.40;;;45.95;;
40787;SDS011;26497;52.494;7.546;2023-07-13T05:42:33;48.83;;;45.08;;
40787;SDS011;26497;52.494;7.546;2023-07-13T05:44:59;53.25;;;49.75;;
40787;SDS011;26497;52.494;7.546;2023-07-13T05:47:26;51.00;;;46.35;;
40787;SDS011;26497;52.494;7.546;2023-07-13T05:49:53;48.10;;;44.65;;
40787;SDS011;26497;52.494;7.546;2023-07-13T05:52:20;45.67;;;42.45;;
40787;SDS011;26497;52.494;7.546;2023-07-13T05:54:49;44.60;;;41.35;;
40787;SDS011;26497;52.494;7.546;2023-07-13T05:57:16;44.22;;;41.08;;
40787;SDS011;26497;52.494;7.546;2023-07-13T05:59:42;45.83;;;42.22;;
40787;SDS011;26497;52.494;7.546;2023-07-13T06:02:10;44.25;;;41.17;;
40787;SDS011;26497;52.494;7.546;2023-07-13T06:04:37;35.55;;;33.17;;
40787;SDS011;26497;52.494;7.546;2023-07-13T06:07:04;36.78;;;34.15;;
40787;SDS011;26497;52.494;7.546;2023-07-13T06:09:31;38.60;;;36.03;;
40787;SDS011;26497;52.494;7.546;2023-07-13T06:11:59;37.55;;;34.88;;
40787;SDS011;26497;52.494;7.546;2023-07-13T06:14:26;33.85;;;31.52;;
40787;SDS011;26497;52.494;7.546;2023-07-13T06:16:53;34.92;;;32.33;;
40787;SDS011;26497;52.494;7.546;2023-07-13T06:19:20;29.45;;;27.63;;
40787;SDS011;26497;52.494;7.546;2023-07-13T06:21:47;29.83;;;27.23;;
40787;SDS011;26497;52.494;7.546;2023-07-13T06:24:14;30.05;;;28.00;;
40787;SDS011;26497;52.494;7.546;2023-07-13T06:26:41;32.90;;;30.58;;
40787;SDS011;26497;52.494;7.546;2023-07-13T06:29:11;32.83;;;30.17;;
40787;SDS011;26497;52.494;7.546;2023-07-13T06:31:38;33.58;;;30.98;;
40787;SDS011;26497;52.494;7.546;2023-07-13T06:34:05;33.97;;;31.48;;
40787;SDS011;26497;52.494;7.546;2023-07-13T06:36:32;36.60;;;33.75;;
40787;SDS011;26497;52.494;7.546;2023-07-13T06:38:59;36.28;;;33.88;;
40787;SDS011;26497;52.494;7.546;2023-07-13T06:41:25;36.40;;;33.45;;
40787;SDS011;26497;52.494;7.546;2023-07-13T06:43:52;38.80;;;36.30;;
40787;SDS011;26497;52.494;7.546;2023-07-13T06:46:21;33.75;;;30.67;;
40787;SDS011;26497;52.494;7.546;2023-07-13T06:48:49;35.20;;;32.55;;
40787;SDS011;26497;52.494;7.546;2023-07-13T06:51:17;38.60;;;36.15;;
40787;SDS011;26497;52.494;7.546;2023-07-13T06:53:44;36.47;;;33.85;;
40787;SDS011;26497;52.494;7.546;2023-07-13T06:56:11;34.15;;;31.45;;
40787;SDS011;26497;52.494;7.546;2023-07-13T06:58:39;31.58;;;29.60;;
40787;SDS011;26497;52.494;7.546;2023-07-13T07:01:06;31.38;;;28.60;;
40787;SDS011;26497;52.494;7.546;2023-07-13T07:03:34;34.65;;;31.83;;
40787;SDS011;26497;52.494;7.546;2023-07-13T07:06:03;28.67;;;26.65;;
40787;SDS011;26497;52.494;7.546;2023-07-13T07:08:40;30.88;;;28.58;;
40787;SDS011;26497;52.494;7.546;2023-07-13T07:11:08;32.88;;;30.60;;
40787;SDS011;26497;52.494;7.546;2023-07-13T07:13:39;32.88;;;29.98;;
40787;SDS011;26497;52.494;7.546;2023-07-13T07:16:12;29.58;;;27.45;;
40787;SDS011;26497;52.494;7.546;2023-07-13T07:18:40;36.20;;;33.65;;
40787;SDS011;26497;52.494;7.546;2023-07-13T07:21:07;27.65;;;25.05;;
40787;SDS011;26497;52.494;7.546;2023-07-13T07:23:35;29.48;;;27.42;;
40787;SDS011;26497;52.494;7.546;2023-07-13T07:26:02;42.03;;;38.78;;
40787;SDS011;26497;52.494;7.546;2023-07-13T07:28:29;39.78;;;37.55;;
40787;SDS011;26497;52.494;7.546;2023-07-13T07:30:57;32.70;;;30.23;;
40787;SDS011;26497;52.494;7.546;2023-07-13T07:33:25;44.97;;;41.78;;
40787;SDS011;26497;52.494;7.546;2023-07-13T07:35:53;43.15;;;40.45;;
40787;SDS011;26497;52.494;7.546;2023-07-13T07:38:20;49.22;;;46.13;;
40787;SDS011;26497;52.494;7.546;2023-07-13T07:40:47;37.50;;;34.97;;
40787;SDS011;26497;52.494;7.546;2023-07-13T07:43:14;43.03;;;39.78;;
40787;SDS011;26497;52.494;7.546;2023-07-13T07:45:41;30.58;;;28.67;;
40787;SDS011;26497;52.494;7.546;2023-07-13T07:48:11;34.17;;;32.00;;
40787;SDS011;26497;52.494;7.546;2023-07-13T07:50:38;39.53;;;36.72;;
40787;SDS011;26497;52.494;7.546;2023-07-13T07:53:07;45.10;;;42.20;;
40787;SDS011;26497;52.494;7.546;2023-07-13T07:55:35;36.58;;;34.00;;
40787;SDS011;26497;52.494;7.546;2023-07-13T07:58:03;38.95;;;36.72;;
40787;SDS011;26497;52.494;7.546;2023-07-13T08:00:30;27.85;;;25.95;;
40787;SDS011;26497;52.494;7.546;2023-07-13T08:02:57;26.13;;;24.25;;
40787;SDS011;26497;52.494;7.546;2023-07-13T08:05:25;28.80;;;26.75;;
40787;SDS011;26497;52.494;7.546;2023-07-13T08:07:52;29.52;;;27.77;;
40787;SDS011;26497;52.494;7.546;2023-07-13T08:10:20;26.92;;;25.02;;
40787;SDS011;26497;52.494;7.546;2023-07-13T08:12:47;27.65;;;25.83;;
40787;SDS011;26497;52.494;7.546;2023-07-13T08:15:15;25.95;;;24.20;;
40787;SDS011;26497;52.494;7.546;2023-07-13T08:17:45;24.88;;;23.15;;
40787;SDS011;26497;52.494;7.546;2023-07-13T08:20:13;25.52;;;23.45;;
40787;SDS011;26497;52.494;7.546;2023-07-13T08:22:41;26.42;;;24.67;;
40787;SDS011;26497;52.494;7.546;2023-07-13T08:25:08;27.55;;;24.42;;
40787;SDS011;26497;52.494;7.546;2023-07-13T08:27:36;24.98;;;23.00;;
40787;SDS011;26497;52.494;7.546;2023-07-13T08:30:03;25.55;;;23.63;;
40787;SDS011;26497;52.494;7.546;2023-07-13T08:32:33;35.03;;;32.03;;
40787;SDS011;26497;52.494;7.546;2023-07-13T08:35:02;29.67;;;27.10;;
40787;SDS011;26497;52.494;7.546;2023-07-13T08:37:30;29.92;;;27.63;;
40787;SDS011;26497;52.494;7.546;2023-07-13T08:39:57;26.17;;;24.65;;
40787;SDS011;26497;52.494;7.546;2023-07-13T08:42:30;27.73;;;25.60;;
40787;SDS011;26497;52.494;7.546;2023-07-13T08:47:49;27.20;;;25.52;;
40787;SDS011;26497;52.494;7.546;2023-07-13T08:50:21;25.92;;;24.17;;
40787;SDS011;26497;52.494;7.546;2023-07-13T08:52:53;25.13;;;23.08;;
40787;SDS011;26497;52.494;7.546;2023-07-13T08:55:24;29.83;;;27.15;;
40787;SDS011;26497;52.494;7.546;2023-07-13T08:57:57;30.63;;;27.67;;
40787;SDS011;26497;52.494;7.546;2023-07-13T09:00:33;30.33;;;27.52;;
40787;SDS011;26497;52.494;7.546;2023-07-13T09:03:11;27.65;;;25.38;;
40787;SDS011;26497;52.494;7.546;2023-07-13T09:05:47;27.63;;;25.85;;
40787;SDS011;26497;52.494;7.546;2023-07-13T09:08:33;26.08;;;24.52;;
40787;SDS011;26497;52.494;7.546;2023-07-13T09:11:15;27.15;;;25.25;;
40787;SDS011;26497;52.494;7.546;2023-07-13T09:13:57;30.33;;;27.70;;
40787;SDS011;26497;52.494;7.546;2023-07-13T09:16:32;34.28;;;31.80;;
40787;SDS011;26497;52.494;7.546;2023-07-13T09:19:02;35.17;;;32.38;;
40787;SDS011;26497;52.494;7.546;2023-07-13T09:21:34;39.35;;;36.83;;
40787;SDS011;26497;52.494;7.546;2023-07-13T09:24:21;28.70;;;26.88;;
40787;SDS011;26497;52.494;7.546;2023-07-13T09:26:55;31.85;;;29.25;;
40787;SDS011;26497;52.494;7.546;2023-07-13T09:29:27;47.80;;;45.05;;
40787;SDS011;26497;52.494;7.546;2023-07-13T09:32:02;48.25;;;44.70;;
40787;SDS011;26497;52.494;7.546;2023-07-13T09:34:35;28.73;;;26.55;;
40787;SDS011;26497;52.494;7.546;2023-07-13T09:37:02;29.00;;;26.77;;
40787;SDS011;26497;52.494;7.546;2023-07-13T09:39:31;27.75;;;25.42;;
40787;SDS011;26497;52.494;7.546;2023-07-13T09:42:03;28.23;;;25.75;;
40787;SDS011;26497;52.494;7.546;2023-07-13T09:44:50;26.40;;;24.13;;
40787;SDS011;26497;52.494;7.546;2023-07-13T09:47:22;26.35;;;24.45;;
40787;SDS011;26497;52.494;7.546;2023-07-13T09:49:55;28.40;;;25.63;;
40787;SDS011;26497;52.494;7.546;2023-07-13T09:52:25;26.85;;;24.77;;
40787;SDS011;26497;52.494;7.546;2023-07-13T09:54:54;26.25;;;24.50;;
40787;SDS011;26497;52.494;7.546;2023-07-13T09:57:25;26.73;;;25.00;;
40787;SDS011;26497;52.494;7.546;2023-07-13T09:59:59;24.45;;;22.80;;
40787;SDS011;26497;52.494;7.546;2023-07-13T10:02:29;25.95;;;24.27;;
40787;SDS011;26497;52.494;7.546;2023-07-13T10:04:59;25.90;;;24.20;;
40787;SDS011;26497;52.494;7.546;2023-07-13T10:07:29;26.20;;;24.55;;
40787;SDS011;26497;52.494;7.546;2023-07-13T10:09:57;26.48;;;24.60;;
40787;SDS011;26497;52.494;7.546;2023-07-13T10:12:28;27.15;;;25.08;;
40787;SDS011;26497;52.494;7.546;2023-07-13T10:15:01;31.88;;;29.17;;
40787;SDS011;26497;52.494;7.546;2023-07-13T10:20:02;29.30;;;27.23;;
40787;SDS011;26497;52.494;7.546;2023-07-13T10:22:36;28.95;;;26.80;;
40787;SDS011;26497;52.494;7.546;2023-07-13T10:25:15;28.45;;;26.30;;
40787;SDS011;26497;52.494;7.546;2023-07-13T10:27:45;28.17;;;26.08;;
40787;SDS011;26497;52.494;7.546;2023-07-13T10:30:14;26.85;;;25.08;;
40787;SDS011;26497;52.494;7.546;2023-07-13T10:32:49;25.77;;;23.60;;
40787;SDS011;26497;52.494;7.546;2023-07-13T10:35:17;30.85;;;28.58;;
40787;SDS011;26497;52.494;7.546;2023-07-13T10:37:48;24.55;;;23.05;;
40787;SDS011;26497;52.494;7.546;2023-07-13T10:40:19;25.10;;;22.98;;
40787;SDS011;26497;52.494;7.546;2023-07-13T10:42:53;25.55;;;23.83;;
40787;SDS011;26497;52.494;7.546;2023-07-13T10:45:23;31.40;;;29.30;;
40787;SDS011;26497;52.494;7.546;2023-07-13T10:47:54;28.42;;;26.40;;
40787;SDS011;26497;52.494;7.546;2023-07-13T10:50:23;37.83;;;34.87;;
40787;SDS011;26497;52.494;7.546;2023-07-13T10:52:53;65.82;;;61.97;;
40787;SDS011;26497;52.494;7.546;2023-07-13T10:55:36;48.80;;;45.30;;
40787;SDS011;26497;52.494;7.546;2023-07-13T10:58:14;61.97;;;58.30;;
40787;SDS011;26497;52.494;7.546;2023-07-13T11:00:49;65.28;;;61.60;;
40787;SDS011;26497;52.494;7.546;2023-07-13T11:03:25;47.25;;;44.08;;
40787;SDS011;26497;52.494;7.546;2023-07-13T11:06:03;45.50;;;42.30;;
40787;SDS011;26497;52.494;7.546;2023-07-13T11:08:37;54.90;;;51.33;;
40787;SDS011;26497;52.494;7.546;2023-07-13T11:11:31;75.05;;;70.35;;
40787;SDS011;26497;52.494;7.546;2023-07-13T11:14:03;69.90;;;65.50;;
40787;SDS011;26497;52.494;7.546;2023-07-13T11:16:51;67.40;;;63.47;;
40787;SDS011;26497;52.494;7.546;2023-07-13T11:22:22;82.20;;;77.90;;
40787;SDS011;26497;52.494;7.546;2023-07-13T11:25:20;80.40;;;76.00;;
40787;SDS011;26497;52.494;7.546;2023-07-13T11:28:14;72.75;;;68.85;;
40787;SDS011;26497;52.494;7.546;2023-07-13T11:30:48;76.85;;;72.65;;
40787;SDS011;26497;52.494;7.546;2023-07-13T11:33:28;68.82;;;64.72;;
40787;SDS011;26497;52.494;7.546;2023-07-13T11:36:16;68.82;;;65.00;;
40787;SDS011;26497;52.494;7.546;2023-07-13T11:38:50;109.18;;;100.38;;
40787;SDS011;26497;52.494;7.546;2023-07-13T11:41:26;87.78;;;82.00;;
40787;SDS011;26497;52.494;7.546;2023-07-13T11:46:32;95.07;;;89.75;;
40787;SDS011;26497;52.494;7.546;2023-07-13T11:48:59;1999.90;;;999.90;;
40787;SDS011;26497;52.494;7.546;2023-07-13T11:51:29;1999.90;;;999.90;;
40787;SDS011;26497;52.494;7.546;2023-07-13T11:54:00;1999.90;;;999.90;;
40787;SDS011;26497;52.494;7.546;2023-07-13T11:56:31;1999.90;;;999.90;;
40787;SDS011;26497;52.494;7.546;2023-07-13T11:59:05;1999.90;;;999.90;;
40787;SDS011;26497;52.494;7.546;2023-07-13T12:01:34;1999.90;;;999.90;;
40787;SDS011;26497;52.494;7.546;2023-07-13T12:04:08;1999.90;;;999.90;;
40787;SDS011;26497;52.494;7.546;2023-07-13T12:06:49;1999.90;;;999.90;;
40787;SDS011;26497;52.494;7.546;2023-07-13T12:09:26;1999.90;;;999.90;;
40787;SDS011;26497;52.494;7.546;2023-07-13T12:11:56;1999.90;;;999.90;;
40787;SDS011;26497;52.494;7.546;2023-07-13T12:14:25;1999.90;;;999.90;;
40787;SDS011;26497;52.494;7.546;2023-07-13T12:16:52;1999.90;;;999.90;;
40787;SDS011;26497;52.494;7.546;2023-07-13T12:19:22;113.88;;;104.00;;
40787;SDS011;26497;52.494;7.546;2023-07-13T12:21:54;110.85;;;102.10;;
40787;SDS011;26497;52.494;7.546;2023-07-13T12:24:24;78.13;;;72.85;;
40787;SDS011;26497;52.494;7.546;2023-07-13T12:26:53;54.92;;;50.65;;
40787;SDS011;26497;52.494;7.546;2023-07-13T12:29:26;76.90;;;63.63;;
40787;SDS011;26497;52.494;7.546;2023-07-13T12:31:54;223.93;;;80.63;;
40787;SDS011;26497;52.494;7.546;2023-07-13T12:34:21;78.47;;;73.38;;
40787;SDS011;26497;52.494;7.546;2023-07-13T12:36:51;72.07;;;68.05;;
40787;SDS011;26497;52.494;7.546;2023-07-13T12:39:22;84.05;;;79.18;;
40787;SDS011;26497;52.494;7.546;2023-07-13T12:41:53;94.40;;;89.00;;
40787;SDS011;26497;52.494;7.546;2023-07-13T12:44:35;131.68;;;124.35;;
40787;SDS011;26497;52.494;7.546;2023-07-13T12:47:11;142.40;;;134.55;;
40787;SDS011;26497;52.494;7.546;2023-07-13T12:49:41;151.20;;;143.00;;
40787;SDS011;26497;52.494;7.546;2023-07-13T12:52:17;207.02;;;195.80;;
40787;SDS011;26497;52.494;7.546;2023-07-13T12:54:54;250.00;;;236.07;;
40787;SDS011;26497;52.494;7.546;2023-07-13T12:57:22;217.20;;;205.35;;
40787;SDS011;26497;52.494;7.546;2023-07-13T12:59:51;150.52;;;142.02;;
40787;SDS011;26497;52.494;7.546;2023-07-13T13:02:22;102.90;;;96.90;;
40787;SDS011;26497;52.494;7.546;2023-07-13T13:04:56;93.00;;;87.47;;
40787;SDS011;26497;52.494;7.546;2023-07-13T13:07:25;114.75;;;107.70;;
40787;SDS011;26497;52.494;7.546;2023-07-13T13:09:52;122.35;;;114.82;;
40787;SDS011;26497;52.494;7.546;2023-07-13T13:12:20;114.40;;;107.20;;
40787;SDS011;26497;52.494;7.546;2023-07-13T13:14:51;127.47;;;120.03;;
40787;SDS011;26497;52.494;7.546;2023-07-13T13:17:19;146.60;;;137.75;;
40787;SDS011;26497;52.494;7.546;2023-07-13T13:19:49;138.43;;;130.60;;
40787;SDS011;26497;52.494;7.546;2023-07-13T13:22:18;135.93;;;127.68;;
40787;SDS011;26497;52.494;7.546;2023-07-13T13:24:46;126.28;;;118.50;;
40787;SDS011;26497;52.494;7.546;2023-07-13T13:27:17;119.63;;;112.40;;
40787;SDS011;26497;52.494;7.546;2023-07-13T13:29:49;106.95;;;101.00;;
40787;SDS011;26497;52.494;7.546;2023-07-13T13:32:18;104.72;;;98.80;;
40787;SDS011;26497;52.494;7.546;2023-07-13T13:34:45;85.97;;;81.03;;
40787;SDS011;26497;52.494;7.546;2023-07-13T13:37:15;84.10;;;79.40;;
40787;SDS011;26497;52.494;7.546;2023-07-13T13:39:47;82.80;;;78.07;;
40787;SDS011;26497;52.494;7.546;2023-07-13T13:42:16;98.80;;;93.30;;
40787;SDS011;26497;52.494;7.546;2023-07-13T13:44:43;115.03;;;108.75;;
40787;SDS011;26497;52.494;7.546;2023-07-13T13:47:19;116.57;;;110.07;;
40787;SDS011;26497;52.494;7.546;2023-07-13T13:49:55;118.13;;;111.50;;
40787;SDS011;26497;52.494;7.546;2023-07-13T13:52:23;118.50;;;111.72;;
40787;SDS011;26497;52.494;7.546;2023-07-13T13:54:52;126.20;;;119.38;;
40787;SDS011;26497;52.494;7.546;2023-07-13T13:57:21;132.88;;;125.22;;
40787;SDS011;26497;52.494;7.546;2023-07-13T14:02:22;114.55;;;108.05;;
40787;SDS011;26497;52.494;7.546;2023-07-13T14:04:53;126.10;;;118.40;;
40787;SDS011;26497;52.494;7.546;2023-07-13T14:07:24;122.47;;;115.13;;
40787;SDS011;26497;52.494;7.546;2023-07-13T14:09:55;126.22;;;118.93;;
40787;SDS011;26497;52.494;7.546;2023-07-13T14:12:24;135.13;;;127.40;;
40787;SDS011;26497;52.494;7.546;2023-07-13T14:14:53;134.25;;;126.22;;
40787;SDS011;26497;52.494;7.546;2023-07-13T14:17:22;135.93;;;128.27;;
40787;SDS011;26497;52.494;7.546;2023-07-13T14:19:52;132.07;;;124.55;;
40787;SDS011;26497;52.494;7.546;2023-07-13T14:22:22;120.35;;;113.72;;
40787;SDS011;26497;52.494;7.546;2023-07-13T14:24:51;98.55;;;92.85;;
40787;SDS011;26497;52.494;7.546;2023-07-13T14:27:20;78.85;;;74.50;;
40787;SDS011;26497;52.494;7.546;2023-07-13T14:29:47;82.88;;;77.68;;
40787;SDS011;26497;52.494;7.546;2023-07-13T14:32:14;84.55;;;79.93;;
40787;SDS011;26497;52.494;7.546;2023-07-13T14:34:41;93.10;;;87.85;;
40787;SDS011;26497;52.494;7.546;2023-07-13T14:37:11;103.32;;;97.07;;
40787;SDS011;26497;52.494;7.546;2023-07-13T14:39:41;113.43;;;107.03;;
40787;SDS011;26497;52.494;7.546;2023-07-13T14:42:12;105.22;;;99.22;;
40787;SDS011;26497;52.494;7.546;2023-07-13T14:44:39;102.55;;;96.80;;
40787;SDS011;26497;52.494;7.546;2023-07-13T14:47:06;100.60;;;94.35;;